Stations météo

Publicité
Madrid, Espagne (8220): Température de l'air & dewpoint: 12.01.2018 14:00:00 - 18.01.2018 14:00:00 (CET)Madrid, Espagne (8220): Vitesse du vent & gusts: 12.01.2018 14:00:00 - 18.01.2018 14:00:00 (CET)Madrid, Espagne (8220): Direction du vent: 12.01.2018 14:00:00 - 18.01.2018 14:00:00 (CET)Madrid, Espagne (8220): Quantités de précipitations: 12.01.2018 14:00:00 - 18.01.2018 14:00:00 (CET)
Date & Time tt [°C] td [°C] ff [km/h] ff [knt] fx [km/h] fx [knt] dd rr [mm]
18.01.2018 14:00:00 13,0 -3,0 3 1 10 6 W 0,0
18.01.2018 13:00:00 11,5 -3,0 3 1 10 5 SSE -
18.01.2018 12:00:00 9,4 -1,7 1 1 10 5 W 0,0
18.01.2018 11:00:00 7,2 1,1 2 1 6 3 W 0,0
18.01.2018 10:00:00 2,9 0,9 3 1 9 5 NNW 0,0
18.01.2018 09:00:00 -0,6 -2,7 5 3 10 5 NNE 0,0
18.01.2018 08:00:00 -0,8 -2,7 2 1 9 5 E 0,0
18.01.2018 07:00:00 -0,5 -2,7 5 3 10 5 NNW -
18.01.2018 06:00:00 0,1 -2,2 8 4 10 6 N 0,0
18.01.2018 05:00:00 0,9 -1,4 4 2 12 6 N 0,0
18.01.2018 04:00:00 0,4 -2,0 2 1 9 5 NNW 0,0
18.01.2018 03:00:00 1,2 -1,4 3 2 10 5 NNW 0,0
18.01.2018 02:00:00 1,5 -1,4 1 1 7 4 NNE 0,0
18.01.2018 01:00:00 2,4 -1,0 2 1 10 5 N -
18.01.2018 00:00:00 3,0 -1,2 1 1 12 7 NE 0,0
17.01.2018 23:00:00 4,5 -1,4 6 3 9 5 ENE 0,0
17.01.2018 22:00:00 6,6 -2,0 4 2 14 7 NE 0,0
17.01.2018 21:00:00 8,1 -2,0 7 4 20 11 NE 0,0
17.01.2018 20:00:00 9,7 -1,7 11 6 23 12 ENE 0,0
17.01.2018 19:00:00 9,9 -1,7 11 6 18 10 ENE -
17.01.2018 18:00:00 11,6 -1,2 10 5 17 9 ENE 0,0
17.01.2018 17:00:00 13,6 0,2 11 6 19 10 E 0,0
17.01.2018 16:00:00 15,1 0,4 2 1 11 6 WNW 0,0
17.01.2018 15:00:00 14,5 1,1 3 2 13 7 W 0,0
17.01.2018 14:00:00 13,0 1,3 4 2 12 6 WSW 0,0
17.01.2018 13:00:00 11,8 2,3 3 2 13 7 SW -
17.01.2018 12:00:00 10,8 2,3 5 3 13 7 SW 0,0
17.01.2018 11:00:00 - - - - - - - -
17.01.2018 10:00:00 - - - - - - - -
17.01.2018 09:00:00 - - - - - - - -
17.01.2018 08:00:00 - - - - - - - -
17.01.2018 07:00:00 - - - - - - - -
17.01.2018 06:00:00 - - - - - - - -
17.01.2018 05:00:00 - - - - - - - -
17.01.2018 04:00:00 - - - - - - - -
17.01.2018 03:00:00 - - - - - - - -
17.01.2018 02:00:00 - - - - - - - -
17.01.2018 01:00:00 - - - - - - - -
17.01.2018 00:00:00 - - - - - - - -
16.01.2018 23:00:00 - - - - - - - -
16.01.2018 22:00:00 - - - - - - - -
16.01.2018 21:00:00 - - - - - - - -
16.01.2018 20:00:00 - - - - - - - -
16.01.2018 19:00:00 - - - - - - - -
16.01.2018 18:00:00 - - - - - - - -
16.01.2018 17:00:00 14,6 3,8 10 5 20 11 W 0,0
16.01.2018 16:00:00 13,4 2,1 4 2 11 6 SSE 0,0
16.01.2018 15:00:00 12,4 1,5 4 2 14 8 SSE 0,0
16.01.2018 14:00:00 10,4 0,2 3 2 13 7 SSE 0,0
16.01.2018 13:00:00 9,3 0,0 3 2 13 7 S -
16.01.2018 12:00:00 8,1 -0,7 3 1 14 8 SSE 0,0
16.01.2018 11:00:00 5,9 0,0 2 1 8 4 W 0,0
16.01.2018 10:00:00 2,5 0,0 0 0 7 4 W 0,0
16.01.2018 09:00:00 0,0 -2,5 0 0 10 5 E 0,0
16.01.2018 08:00:00 0,1 -2,7 1 1 6 3 NNW 0,0
16.01.2018 07:00:00 0,8 -2,5 1 0 4 2 E -
16.01.2018 06:00:00 2,2 -1,7 2 1 13 7 NW 0,0
16.01.2018 05:00:00 2,7 -1,4 3 2 8 5 SSE 0,0
16.01.2018 04:00:00 2,9 -1,7 2 1 11 6 S 0,0
16.01.2018 03:00:00 3,0 -2,0 4 2 9 5 S 0,0
16.01.2018 02:00:00 2,6 -2,7 1 1 13 7 SSW 0,0
16.01.2018 01:00:00 2,2 -3,0 3 1 7 4 SSE -
16.01.2018 00:00:00 3,2 -3,0 4 2 12 7 SSE 0,0
15.01.2018 23:00:00 3,4 -2,5 3 2 12 6 SE 0,0
15.01.2018 22:00:00 3,2 -2,2 4 2 10 6 WSW 0,0
15.01.2018 21:00:00 4,3 -2,2 2 1 10 5 S 0,0
15.01.2018 20:00:00 5,5 -2,0 4 2 13 7 SSW 0,0
15.01.2018 19:00:00 6,3 -2,2 5 3 11 6 SW -
15.01.2018 18:00:00 7,5 -2,2 4 2 21 11 SSW 0,0
15.01.2018 17:00:00 8,4 -2,2 8 4 21 12 SW 0,0
15.01.2018 16:00:00 9,5 -2,2 7 4 19 10 WSW 0,0
15.01.2018 15:00:00 9,4 -2,5 8 4 23 12 WSW 0,0
15.01.2018 14:00:00 8,2 -2,5 3 2 15 8 SSE 0,0
15.01.2018 13:00:00 7,5 -2,5 3 1 16 8 SSW -
15.01.2018 12:00:00 6,0 -2,0 2 1 10 5 S 0,0
15.01.2018 11:00:00 4,1 0,9 3 2 5 3 SW 0,1
15.01.2018 10:00:00 0,4 -1,4 0 0 5 3 E 0,0
15.01.2018 09:00:00 -2,4 -4,2 3 2 10 5 ENE 0,0
15.01.2018 08:00:00 -2,3 -4,2 1 1 7 4 NW 0,0
15.01.2018 07:00:00 -2,0 -3,9 5 3 9 5 NNW -
15.01.2018 06:00:00 -1,8 -3,6 2 1 6 4 ENE 0,0
15.01.2018 05:00:00 -1,6 -3,6 1 1 8 5 NE 0,0
15.01.2018 04:00:00 -1,6 -3,9 0 0 6 4 ENE 0,0
15.01.2018 03:00:00 -1,6 -3,9 3 1 6 4 NNW 0,0
15.01.2018 02:00:00 -0,6 -3,3 1 1 13 7 W 0,0
15.01.2018 01:00:00 0,4 -2,2 10 5 14 8 NE -
15.01.2018 00:00:00 0,9 -2,0 8 5 11 6 NE 0,0
14.01.2018 23:00:00 1,6 -1,2 8 4 11 6 NNE 0,0
14.01.2018 22:00:00 2,4 -0,3 5 3 10 5 NE 0,0
14.01.2018 21:00:00 2,5 -0,5 5 3 8 4 N 0,0
14.01.2018 20:00:00 2,9 -0,5 6 3 13 7 NE 0,0
14.01.2018 19:00:00 2,9 -1,2 8 4 11 6 NE -
14.01.2018 18:00:00 5,1 -2,2 5 3 14 8 NE 0,0
14.01.2018 17:00:00 6,9 -2,2 4 2 13 7 NE 0,0
14.01.2018 16:00:00 6,2 -1,4 6 3 16 9 NE 0,0
14.01.2018 15:00:00 6,1 -0,7 6 3 17 9 NE 0,0
14.01.2018 14:00:00 4,3 -1,2 10 6 17 9 NE 0,0
14.01.2018 13:00:00 7,2 0,6 5 3 15 8 W -
14.01.2018 12:00:00 5,6 1,3 3 1 14 7 N 0,0
14.01.2018 11:00:00 4,8 2,9 4 2 8 4 NW 0,0
14.01.2018 10:00:00 2,4 0,4 2 1 12 7 SSW 0,0
14.01.2018 09:00:00 2,6 0,6 4 2 10 5 NW 0,0
14.01.2018 08:00:00 2,4 0,4 4 2 15 8 W 0,0
14.01.2018 07:00:00 2,5 0,6 8 4 14 7 W -
14.01.2018 06:00:00 2,4 0,4 1 1 11 6 WSW 0,0
14.01.2018 05:00:00 2,5 0,6 7 4 15 8 W 0,0
14.01.2018 04:00:00 2,2 0,2 6 3 18 10 SW 0,0
14.01.2018 03:00:00 2,2 0,2 9 5 21 11 WSW 0,0
14.01.2018 02:00:00 2,2 0,2 7 4 18 10 WSW 0,0
14.01.2018 01:00:00 2,4 0,4 6 4 18 10 SW -
14.01.2018 00:00:00 2,5 0,6 4 2 19 11 SW 0,0
13.01.2018 23:00:00 2,2 0,2 10 5 22 12 W 0,0
13.01.2018 22:00:00 1,8 0,0 6 3 20 11 WSW 0,0
13.01.2018 21:00:00 1,8 0,0 7 4 16 9 WSW 0,0
13.01.2018 20:00:00 1,8 -0,3 7 4 11 6 WSW 0,0
13.01.2018 19:00:00 2,0 0,0 6 3 9 5 WNW -
13.01.2018 18:00:00 1,7 -0,5 2 1 11 6 S 0,8
13.01.2018 17:00:00 2,2 -0,3 7 4 12 7 WNW 1,6
13.01.2018 16:00:00 2,8 0,0 4 2 7 4 NNW 1,2
13.01.2018 15:00:00 3,1 -0,3 1 1 16 8 ESE 1,2
13.01.2018 14:00:00 3,8 -0,7 5 3 16 9 SW 1,2
13.01.2018 13:00:00 4,7 -1,4 3 1 10 5 SW -
13.01.2018 12:00:00 4,6 -0,7 2 1 11 6 SSW 0,0
13.01.2018 11:00:00 3,2 0,9 4 2 6 3 SW 0,0
13.01.2018 10:00:00 0,3 -1,7 0 0 4 2 N 0,0
13.01.2018 09:00:00 0,0 -2,0 4 2 7 4 NW 0,0
13.01.2018 08:00:00 -0,2 -2,2 2 1 10 5 E 0,0
13.01.2018 07:00:00 -0,2 -2,5 5 3 8 5 NE -
13.01.2018 06:00:00 -0,2 -2,5 3 2 7 4 NNE 0,0
13.01.2018 05:00:00 0,1 -2,5 1 1 6 4 W 0,0
13.01.2018 04:00:00 0,8 -2,0 3 2 4 2 NNW 0,0
13.01.2018 03:00:00 1,2 -2,0 0 0 7 4 E 0,0
13.01.2018 02:00:00 1,5 -2,2 1 1 5 3 NNW 0,0
13.01.2018 01:00:00 2,1 -1,7 2 1 9 5 ENE -
13.01.2018 00:00:00 2,4 -2,2 4 2 10 6 S 0,0
12.01.2018 23:00:00 3,4 -2,5 4 2 7 4 S 0,0
12.01.2018 22:00:00 3,9 -2,2 5 3 8 4 WSW 0,0
12.01.2018 21:00:00 4,1 -3,0 3 1 5 3 WSW 0,0
12.01.2018 20:00:00 5,2 -3,0 4 2 10 5 S 0,0
12.01.2018 19:00:00 6,0 -3,0 5 3 9 5 WSW -
12.01.2018 18:00:00 7,5 -3,3 6 3 16 9 SW 0,0
12.01.2018 17:00:00 8,4 -3,3 7 4 15 8 WSW 0,0
12.01.2018 16:00:00 8,6 -3,3 3 1 12 7 S 0,0
12.01.2018 15:00:00 8,6 -3,3 3 2 14 8 S 0,0
12.01.2018 14:00:00 8,4 -3,3 3 1 15 8 S 0,0

tt = Température de l'air
td = dewpoint
ff = Vitesse du vent
fx = gusts
dd = Direction du vent
rr = Quantités de précipitations

stations d'obs. à proximité